createdAt,value
2018-08-11T00:00:05.801Z,24.97
2018-08-11T00:00:37.869Z,25.05
2018-08-11T00:01:09.944Z,25.08
2018-08-11T00:01:42.056Z,24.97
2018-08-11T00:02:14.292Z,25.04
2018-08-11T00:02:46.412Z,25.05
2018-08-11T00:03:18.611Z,25.07
2018-08-11T00:03:50.684Z,25.11
2018-08-11T00:04:22.724Z,25.02
2018-08-11T00:04:54.787Z,25.02
2018-08-11T00:05:27.631Z,25
2018-08-11T00:05:59.680Z,25.05
2018-08-11T00:06:31.727Z,25.05
2018-08-11T00:07:03.899Z,25.05
2018-08-11T00:07:35.975Z,25.04
2018-08-11T00:08:08.015Z,25.04
2018-08-11T00:08:40.052Z,25
2018-08-11T00:09:12.103Z,24.97
2018-08-11T00:09:44.180Z,24.97
2018-08-11T00:10:16.232Z,25.01
2018-08-11T00:10:48.279Z,25.01
2018-08-11T00:11:20.306Z,25
2018-08-11T00:11:52.351Z,24.96
2018-08-11T00:12:24.394Z,25.09
2018-08-11T00:12:56.459Z,25.07
2018-08-11T00:13:28.523Z,25.07
2018-08-11T00:14:00.582Z,25.04
2018-08-11T00:14:32.721Z,25.01
2018-08-11T00:15:04.906Z,25.01
2018-08-11T00:15:37.039Z,24.97
2018-08-11T00:16:09.081Z,25
2018-08-11T00:16:41.192Z,25.01
2018-08-11T00:17:13.257Z,25
2018-08-11T00:17:45.318Z,25
2018-08-11T00:18:17.364Z,25
2018-08-11T00:18:49.395Z,25.01
2018-08-11T00:19:21.418Z,25.05
2018-08-11T00:19:53.488Z,25
2018-08-11T00:20:25.551Z,25.01
2018-08-11T00:20:57.597Z,25.02
2018-08-11T00:21:29.613Z,25.01
2018-08-11T00:22:01.661Z,25.02
2018-08-11T00:22:33.795Z,24.89
2018-08-11T00:23:05.916Z,24.96
2018-08-11T00:23:38.485Z,25.02
2018-08-11T00:24:10.552Z,25
2018-08-11T00:24:42.571Z,24.97
2018-08-11T00:25:14.621Z,24.97
2018-08-11T00:25:46.660Z,25
2018-08-11T00:26:18.793Z,25.02
2018-08-11T00:26:50.811Z,24.9
2018-08-11T00:27:22.824Z,25.02
2018-08-11T00:27:54.872Z,25.04
2018-08-11T00:28:26.940Z,25
2018-08-11T00:28:59.014Z,24.92
2018-08-11T00:29:31.033Z,24.93
2018-08-11T00:30:03.113Z,24.96
2018-08-11T00:30:35.166Z,24.9
2018-08-11T00:31:07.167Z,24.92
2018-08-11T00:31:39.204Z,24.86
2018-08-11T00:32:11.281Z,24.9
2018-08-11T00:32:43.428Z,24.94
2018-08-11T00:33:15.471Z,24.97
2018-08-11T00:33:47.518Z,24.92
2018-08-11T00:34:19.540Z,24.9
2018-08-11T00:34:51.585Z,24.92
2018-08-11T00:35:23.597Z,24.89
2018-08-11T00:35:55.690Z,24.93
2018-08-11T00:36:27.759Z,24.9
2018-08-11T00:36:59.820Z,24.9
2018-08-11T00:37:31.964Z,24.93
2018-08-11T00:38:03.997Z,24.96
2018-08-11T00:38:36.031Z,24.92
2018-08-11T00:39:08.071Z,24.96
2018-08-11T00:39:40.121Z,24.9
2018-08-11T00:40:12.143Z,24.9
2018-08-11T00:40:44.206Z,24.89
2018-08-11T00:41:16.301Z,24.89
2018-08-11T00:41:48.377Z,24.92
2018-08-11T00:42:20.428Z,24.92
2018-08-11T00:42:52.585Z,24.9
2018-08-11T00:43:24.626Z,24.92
2018-08-11T00:43:56.633Z,24.85
2018-08-11T00:44:28.713Z,24.87
2018-08-11T00:45:00.787Z,24.87
2018-08-11T00:45:32.827Z,24.86
2018-08-11T00:46:04.870Z,24.92
2018-08-11T00:46:36.943Z,24.89
2018-08-11T00:47:08.983Z,24.83
2018-08-11T00:47:41.073Z,24.85
2018-08-11T00:48:13.140Z,24.87
2018-08-11T00:48:45.188Z,24.85
2018-08-11T00:49:17.373Z,24.86
2018-08-11T00:49:49.482Z,24.87
2018-08-11T00:50:21.500Z,24.85
2018-08-11T00:50:53.579Z,24.85
2018-08-11T00:51:25.643Z,24.74
2018-08-11T00:51:57.726Z,24.87
2018-08-11T00:52:29.836Z,24.89
2018-08-11T00:53:01.965Z,24.8
2018-08-11T00:53:34.035Z,24.86
2018-08-11T00:54:06.081Z,24.75
2018-08-11T00:54:38.152Z,24.86
2018-08-11T00:55:10.179Z,24.87
2018-08-11T00:55:42.306Z,24.85
2018-08-11T00:56:14.316Z,24.71
2018-08-11T00:56:46.395Z,24.77
2018-08-11T00:57:18.477Z,24.85
2018-08-11T00:57:51.353Z,24.82
2018-08-11T00:58:23.389Z,24.75
2018-08-11T00:58:55.410Z,24.77
2018-08-11T00:59:27.469Z,24.71
2018-08-11T00:59:59.519Z,24.75
2018-08-11T01:00:31.578Z,24.74
2018-08-11T01:01:03.601Z,24.74
2018-08-11T01:01:35.676Z,24.8
2018-08-11T01:02:07.748Z,24.8
2018-08-11T01:02:39.819Z,24.77
2018-08-11T01:03:11.882Z,24.78
2018-08-11T01:03:43.914Z,24.74
2018-08-11T01:04:15.988Z,24.82
2018-08-11T01:04:48.037Z,24.75
2018-08-11T01:05:20.120Z,24.78
2018-08-11T01:05:52.175Z,24.78
2018-08-11T01:06:24.253Z,24.78
2018-08-11T01:06:56.331Z,24.77
2018-08-11T01:07:28.405Z,24.8
2018-08-11T01:08:00.468Z,24.8
2018-08-11T01:08:32.597Z,24.78
2018-08-11T01:09:04.642Z,24.75
2018-08-11T01:09:36.701Z,24.83
2018-08-11T01:10:08.743Z,24.69
2018-08-11T01:10:40.805Z,24.75
2018-08-11T01:11:13.008Z,24.8
2018-08-11T01:11:45.044Z,24.78
2018-08-11T01:12:17.138Z,24.74
2018-08-11T01:12:49.228Z,24.75
2018-08-11T01:13:21.285Z,24.85
2018-08-11T01:13:53.359Z,24.78
2018-08-11T01:14:25.448Z,24.77
2018-08-11T01:14:57.530Z,24.8
2018-08-11T01:15:29.602Z,24.77
2018-08-11T01:16:01.612Z,24.74
2018-08-11T01:16:33.641Z,24.74
2018-08-11T01:17:05.687Z,24.7
2018-08-11T01:17:37.725Z,24.78
2018-08-11T01:18:09.902Z,24.71
2018-08-11T01:18:42.009Z,24.64
2018-08-11T01:19:14.082Z,24.77
2018-08-11T01:19:46.131Z,24.67
2018-08-11T01:20:18.166Z,24.8
2018-08-11T01:20:50.244Z,24.7
2018-08-11T01:21:22.384Z,24.71
2018-08-11T01:21:54.458Z,24.74
2018-08-11T01:22:26.528Z,24.71
2018-08-11T01:22:58.529Z,24.71
2018-08-11T01:23:30.742Z,24.67
2018-08-11T01:24:02.803Z,24.75
2018-08-11T01:24:34.830Z,24.74
2018-08-11T01:25:06.895Z,24.77
2018-08-11T01:25:38.933Z,24.77
2018-08-11T01:26:10.988Z,24.77
2018-08-11T01:26:43.118Z,24.69
2018-08-11T01:27:15.159Z,24.64
2018-08-11T01:27:47.200Z,24.64
2018-08-11T01:28:19.231Z,24.75
2018-08-11T01:28:51.259Z,24.74
2018-08-11T01:29:23.280Z,24.77
2018-08-11T01:29:55.305Z,24.64
2018-08-11T01:30:27.320Z,24.71
2018-08-11T01:31:00.104Z,24.71
2018-08-11T01:31:32.146Z,24.69
2018-08-11T01:32:04.208Z,24.71
2018-08-11T01:32:36.279Z,24.75
2018-08-11T01:33:08.319Z,24.69
2018-08-11T01:33:40.352Z,24.71
2018-08-11T01:34:13.377Z,24.66
2018-08-11T01:34:45.449Z,24.74
2018-08-11T01:35:17.516Z,24.75
2018-08-11T01:35:49.588Z,24.7
2018-08-11T01:36:21.634Z,24.67
2018-08-11T01:36:53.665Z,24.8
2018-08-11T01:37:25.744Z,24.74
2018-08-11T01:37:57.825Z,24.66
2018-08-11T01:38:29.894Z,24.74
2018-08-11T01:39:01.928Z,24.7
2018-08-11T01:39:33.971Z,24.75
2018-08-11T01:40:06.017Z,24.7
2018-08-11T01:40:38.041Z,24.71
2018-08-11T01:41:10.123Z,24.69
2018-08-11T01:41:42.197Z,24.66
2018-08-11T01:42:14.246Z,24.71
2018-08-11T01:42:46.293Z,24.69
2018-08-11T01:43:18.329Z,24.7
2018-08-11T01:43:50.375Z,24.71
2018-08-11T01:44:22.554Z,24.69
2018-08-11T01:44:54.561Z,24.7
2018-08-11T01:45:26.595Z,24.67
2018-08-11T01:45:59.308Z,24.75
2018-08-11T01:46:31.371Z,24.7
2018-08-11T01:47:03.419Z,24.71
2018-08-11T01:47:35.440Z,24.71
2018-08-11T01:48:07.496Z,24.67
2018-08-11T01:48:39.555Z,24.7
2018-08-11T01:49:11.640Z,24.77
2018-08-11T01:49:43.695Z,24.74
2018-08-11T01:50:15.744Z,24.77
2018-08-11T01:50:47.800Z,24.74
2018-08-11T01:51:19.905Z,24.71
2018-08-11T01:51:52.089Z,24.69
2018-08-11T01:52:24.322Z,24.69
2018-08-11T01:52:56.330Z,24.74
2018-08-11T01:53:28.399Z,24.67
2018-08-11T01:54:00.589Z,24.66
2018-08-11T01:54:32.669Z,24.7
2018-08-11T01:55:04.754Z,24.66
2018-08-11T01:55:36.812Z,24.66
2018-08-11T01:56:08.865Z,24.7
2018-08-11T01:56:40.919Z,24.71
2018-08-11T01:57:13.110Z,24.75
2018-08-11T01:57:45.726Z,24.67
2018-08-11T01:58:17.689Z,24.74
2018-08-11T01:58:49.729Z,24.66
2018-08-11T01:59:21.805Z,24.71
2018-08-11T01:59:53.879Z,24.71
2018-08-11T02:00:26.002Z,24.69
2018-08-11T02:00:58.109Z,24.66
2018-08-11T02:01:30.191Z,24.75
2018-08-11T02:02:02.324Z,24.74
2018-08-11T02:02:34.372Z,24.74
2018-08-11T02:03:06.520Z,24.71
2018-08-11T02:03:38.584Z,24.77
2018-08-11T02:04:10.622Z,24.64
2018-08-11T02:04:42.685Z,24.7
2018-08-11T02:05:14.749Z,24.75
2018-08-11T02:05:46.820Z,24.71
2018-08-11T02:06:18.884Z,24.77
2018-08-11T02:06:50.934Z,24.67
2018-08-11T02:07:22.981Z,24.74
2018-08-11T02:07:55.051Z,24.71
2018-08-11T02:08:27.097Z,24.67
2018-08-11T02:08:59.175Z,24.7
2018-08-11T02:09:31.198Z,24.66
2018-08-11T02:10:03.229Z,24.7
2018-08-11T02:10:35.304Z,24.67
2018-08-11T02:11:07.450Z,24.74
2018-08-11T02:11:39.617Z,24.74
2018-08-11T02:12:11.770Z,24.74
2018-08-11T02:12:43.925Z,24.71
2018-08-11T02:13:16.121Z,24.69
2018-08-11T02:13:48.217Z,24.74
2018-08-11T02:14:20.261Z,24.71
2018-08-11T02:14:52.309Z,24.67
2018-08-11T02:15:24.345Z,24.71
2018-08-11T02:15:56.408Z,24.66
2018-08-11T02:16:28.475Z,24.74
2018-08-11T02:17:00.532Z,24.71
2018-08-11T02:17:32.633Z,24.69
2018-08-11T02:18:04.637Z,24.77
2018-08-11T02:18:36.705Z,24.71
2018-08-11T02:19:08.751Z,24.7
2018-08-11T02:19:40.809Z,24.7
2018-08-11T02:20:12.859Z,24.71
2018-08-11T02:20:44.932Z,24.78
2018-08-11T02:21:16.964Z,24.71
2018-08-11T02:21:48.996Z,24.74
2018-08-11T02:22:21.055Z,24.71
2018-08-11T02:22:53.121Z,24.69
2018-08-11T02:23:25.170Z,24.75
2018-08-11T02:23:57.216Z,24.67
2018-08-11T02:24:29.251Z,24.67
2018-08-11T02:25:01.334Z,24.74
2018-08-11T02:25:34.157Z,24.71
2018-08-11T02:26:06.195Z,24.63
2018-08-11T02:26:38.261Z,24.71
2018-08-11T02:27:10.407Z,24.69
2018-08-11T02:27:42.459Z,24.69
2018-08-11T02:28:14.542Z,24.7
2018-08-11T02:28:46.602Z,24.7
2018-08-11T02:29:18.679Z,24.74
2018-08-11T02:29:50.747Z,24.71
2018-08-11T02:30:22.831Z,24.7
2018-08-11T02:30:54.909Z,24.64
2018-08-11T02:31:26.966Z,24.7
2018-08-11T02:31:59.028Z,24.7
2018-08-11T02:32:31.084Z,24.66
2018-08-11T02:33:03.248Z,24.7
2018-08-11T02:33:35.334Z,24.69
2018-08-11T02:34:07.433Z,24.71
2018-08-11T02:34:39.665Z,24.7
2018-08-11T02:35:11.803Z,24.7
2018-08-11T02:35:43.971Z,24.7
2018-08-11T02:36:16.044Z,24.69
2018-08-11T02:36:48.095Z,24.7
2018-08-11T02:37:20.150Z,24.69
2018-08-11T02:37:52.251Z,24.7
2018-08-11T02:38:24.356Z,24.63
2018-08-11T02:38:56.384Z,24.61
2018-08-11T02:39:28.452Z,24.69
2018-08-11T02:40:00.652Z,24.71
2018-08-11T02:40:32.709Z,24.71
2018-08-11T02:41:04.761Z,24.77
2018-08-11T02:41:36.811Z,24.78
2018-08-11T02:42:08.875Z,24.75
2018-08-11T02:42:41.062Z,24.75
2018-08-11T02:43:13.196Z,24.75
2018-08-11T02:43:45.267Z,24.71
2018-08-11T02:44:17.339Z,24.7
2018-08-11T02:44:49.375Z,24.67
2018-08-11T02:45:21.420Z,24.71
2018-08-11T02:45:53.571Z,24.71
2018-08-11T02:46:25.618Z,24.71
2018-08-11T02:46:57.668Z,24.75
2018-08-11T02:47:29.735Z,24.66
2018-08-11T02:48:01.814Z,24.71
2018-08-11T02:48:33.993Z,24.71
2018-08-11T02:49:06.042Z,24.75
2018-08-11T02:49:38.076Z,24.64
2018-08-11T02:50:10.140Z,24.64
2018-08-11T02:50:42.231Z,24.63
2018-08-11T02:51:14.485Z,24.63
2018-08-11T02:51:46.661Z,24.7
2018-08-11T02:52:18.710Z,24.77
2018-08-11T02:52:50.763Z,24.69
2018-08-11T02:53:22.817Z,24.69
2018-08-11T02:53:54.860Z,24.66
2018-08-11T02:54:26.958Z,24.59
2018-08-11T02:54:59.016Z,24.56
2018-08-11T02:55:31.115Z,24.59
2018-08-11T02:56:03.310Z,24.59
2018-08-11T02:56:35.349Z,24.61
2018-08-11T02:57:07.442Z,24.64
2018-08-11T02:57:39.526Z,24.58
2018-08-11T02:58:11.581Z,24.66
2018-08-11T02:58:43.693Z,24.63
2018-08-11T02:59:15.795Z,24.59
2018-08-11T02:59:47.903Z,24.63
2018-08-11T03:00:19.931Z,24.56
2018-08-11T03:00:52.013Z,24.63
2018-08-11T03:01:24.099Z,24.58
2018-08-11T03:01:56.245Z,24.59
2018-08-11T03:02:28.395Z,24.56
2018-08-11T03:03:00.686Z,24.59
2018-08-11T03:03:32.743Z,24.58
2018-08-11T03:04:04.822Z,24.58
2018-08-11T03:04:36.861Z,24.64
2018-08-11T03:05:08.890Z,24.59
2018-08-11T03:05:41.014Z,24.59
2018-08-11T03:06:13.092Z,24.58
2018-08-11T03:06:45.151Z,24.61
2018-08-11T03:07:17.230Z,24.59
2018-08-11T03:07:49.296Z,24.59
2018-08-11T03:08:21.446Z,24.56
2018-08-11T03:08:53.518Z,24.58
2018-08-11T03:09:25.584Z,24.56
2018-08-11T03:09:57.658Z,24.54
2018-08-11T03:10:29.735Z,24.52
2018-08-11T03:11:01.758Z,24.59
2018-08-11T03:11:33.801Z,24.64
2018-08-11T03:12:05.888Z,24.64
2018-08-11T03:12:37.986Z,24.55
2018-08-11T03:13:10.042Z,24.55
2018-08-11T03:13:42.107Z,24.52
2018-08-11T03:14:14.183Z,24.55
2018-08-11T03:14:46.261Z,24.54
2018-08-11T03:15:18.306Z,24.58
2018-08-11T03:15:50.361Z,24.54
2018-08-11T03:16:22.437Z,24.55
2018-08-11T03:16:55.360Z,24.56
2018-08-11T03:17:27.426Z,24.51
2018-08-11T03:17:59.523Z,24.54
2018-08-11T03:18:32.240Z,24.59
2018-08-11T03:19:04.263Z,24.56
2018-08-11T03:19:36.322Z,24.54
2018-08-11T03:20:08.472Z,24.58
2018-08-11T03:20:40.523Z,24.48
2018-08-11T03:21:12.586Z,24.63
2018-08-11T03:21:44.651Z,24.59
2018-08-11T03:22:16.725Z,24.63
2018-08-11T03:22:48.804Z,24.45
2018-08-11T03:23:20.893Z,24.56
2018-08-11T03:23:53.004Z,24.55
2018-08-11T03:24:25.068Z,24.55
2018-08-11T03:24:57.132Z,24.49
2018-08-11T03:25:29.213Z,24.56
2018-08-11T03:26:01.289Z,24.56
2018-08-11T03:26:33.324Z,24.44
2018-08-11T03:27:05.395Z,24.44
2018-08-11T03:27:37.537Z,24.56
2018-08-11T03:28:09.607Z,24.48
2018-08-11T03:28:41.644Z,24.49
2018-08-11T03:29:13.721Z,24.44
2018-08-11T03:29:46.679Z,24.46
2018-08-11T03:30:18.712Z,24.61
2018-08-11T03:30:50.829Z,24.54
2018-08-11T03:31:22.970Z,24.54
2018-08-11T03:31:55.059Z,24.48
2018-08-11T03:32:27.134Z,24.48
2018-08-11T03:32:59.250Z,24.48
2018-08-11T03:33:31.249Z,24.45
2018-08-11T03:34:03.300Z,24.49
2018-08-11T03:34:35.356Z,24.46
2018-08-11T03:35:07.414Z,24.51
2018-08-11T03:35:40.276Z,24.48
2018-08-11T03:36:12.319Z,24.52
2018-08-11T03:36:44.377Z,24.46
2018-08-11T03:37:16.450Z,24.49
2018-08-11T03:37:48.491Z,24.51
2018-08-11T03:38:20.537Z,24.52
2018-08-11T03:38:52.569Z,24.46
2018-08-11T03:39:24.629Z,24.48
2018-08-11T03:39:56.699Z,24.49
2018-08-11T03:40:28.747Z,24.42
2018-08-11T03:41:00.751Z,24.42
2018-08-11T03:41:32.837Z,24.46
2018-08-11T03:42:04.899Z,24.44
2018-08-11T03:42:37.043Z,24.48
2018-08-11T03:43:09.168Z,24.44
2018-08-11T03:43:41.187Z,24.44
2018-08-11T03:44:13.264Z,24.49
2018-08-11T03:44:45.338Z,24.39
2018-08-11T03:45:17.406Z,24.37
2018-08-11T03:45:49.496Z,24.45
2018-08-11T03:46:21.533Z,24.37
2018-08-11T03:46:53.571Z,24.39
2018-08-11T03:47:25.652Z,24.44
2018-08-11T03:47:57.711Z,24.4
2018-08-11T03:48:29.805Z,24.46
2018-08-11T03:49:01.884Z,24.36
2018-08-11T03:49:33.946Z,24.37
2018-08-11T03:50:06.031Z,24.37
2018-08-11T03:50:38.187Z,24.44
2018-08-11T03:51:10.266Z,24.34
2018-08-11T03:51:42.323Z,24.46
2018-08-11T03:52:14.375Z,24.36
2018-08-11T03:52:46.432Z,24.4
2018-08-11T03:53:18.502Z,24.39
2018-08-11T03:53:50.571Z,24.42
2018-08-11T03:54:22.685Z,24.4
2018-08-11T03:54:54.709Z,24.42
2018-08-11T03:55:27.466Z,24.39
2018-08-11T03:55:59.664Z,24.33
2018-08-11T03:56:31.745Z,24.32
2018-08-11T03:57:03.872Z,24.4
2018-08-11T03:57:36.002Z,24.29
2018-08-11T03:58:08.058Z,24.29
2018-08-11T03:58:40.076Z,24.3
2018-08-11T03:59:12.208Z,24.34
2018-08-11T03:59:44.412Z,24.36
2018-08-11T04:00:16.469Z,24.33
2018-08-11T04:00:48.522Z,24.3
2018-08-11T04:01:20.582Z,24.44
2018-08-11T04:01:52.630Z,24.29
2018-08-11T04:02:24.658Z,24.33
2018-08-11T04:02:56.734Z,24.3
2018-08-11T04:03:28.814Z,24.33
2018-08-11T04:04:00.892Z,24.36
2018-08-11T04:04:32.988Z,24.37
2018-08-11T04:05:05.035Z,24.33
2018-08-11T04:05:37.063Z,24.33
2018-08-11T04:06:09.237Z,24.27
2018-08-11T04:06:41.309Z,24.33
2018-08-11T04:07:13.419Z,24.32
2018-08-11T04:07:45.504Z,24.33
2018-08-11T04:08:17.558Z,24.3
2018-08-11T04:08:49.647Z,24.27
2018-08-11T04:09:21.691Z,24.33
2018-08-11T04:09:53.772Z,24.3
2018-08-11T04:10:25.845Z,24.3
2018-08-11T04:10:57.850Z,24.3
2018-08-11T04:11:29.879Z,24.29
2018-08-11T04:12:01.879Z,24.3
2018-08-11T04:12:40.815Z,24.27
2018-08-11T04:13:12.891Z,24.29
2018-08-11T04:13:44.982Z,24.26
2018-08-11T04:14:17.050Z,24.29
2018-08-11T04:14:49.121Z,24.29
2018-08-11T04:15:21.180Z,24.34
2018-08-11T04:15:53.257Z,24.27
2018-08-11T04:16:25.333Z,24.26
2018-08-11T04:16:57.389Z,24.24
2018-08-11T04:17:29.438Z,24.27
2018-08-11T04:18:01.521Z,24.27
2018-08-11T04:18:33.593Z,24.22
2018-08-11T04:19:05.658Z,24.3
2018-08-11T04:19:37.717Z,24.21
2018-08-11T04:20:09.898Z,24.24
2018-08-11T04:20:42.017Z,24.22
2018-08-11T04:21:14.169Z,24.29
2018-08-11T04:21:46.273Z,24.3
2018-08-11T04:22:18.300Z,24.22
2018-08-11T04:22:50.399Z,24.22
2018-08-11T04:23:22.483Z,24.27
2018-08-11T04:23:54.576Z,24.26
2018-08-11T04:24:26.644Z,24.24
2018-08-11T04:24:58.690Z,24.21
2018-08-11T04:25:30.786Z,24.22
2018-08-11T04:26:02.824Z,24.26
2018-08-11T04:26:34.840Z,24.26
2018-08-11T04:27:06.938Z,24.26
2018-08-11T04:27:38.988Z,24.19
2018-08-11T04:28:11.042Z,24.22
2018-08-11T04:28:43.111Z,24.26
2018-08-11T04:29:15.159Z,24.18
2018-08-11T04:29:47.317Z,24.26
2018-08-11T04:30:19.471Z,24.26
2018-08-11T04:30:51.552Z,24.21
2018-08-11T04:31:23.593Z,24.18
2018-08-11T04:31:55.661Z,24.24
2018-08-11T04:32:27.718Z,24.21
2018-08-11T04:32:59.816Z,24.17
2018-08-11T04:33:31.915Z,24.19
2018-08-11T04:34:03.950Z,24.22
2018-08-11T04:34:36.014Z,24.29
2018-08-11T04:35:08.077Z,24.19
2018-08-11T04:35:40.200Z,24.24
2018-08-11T04:36:12.244Z,24.27
2018-08-11T04:36:44.326Z,24.19
2018-08-11T04:37:16.394Z,24.17
2018-08-11T04:37:48.454Z,24.24
2018-08-11T04:38:20.520Z,24.19
2018-08-11T04:38:52.548Z,24.22
2018-08-11T04:39:24.584Z,24.21
2018-08-11T04:39:56.609Z,24.22
2018-08-11T04:40:28.635Z,24.14
2018-08-11T04:41:00.706Z,24.19
2018-08-11T04:41:32.756Z,24.15
2018-08-11T04:42:04.876Z,24.15
2018-08-11T04:42:36.988Z,24.19
2018-08-11T04:43:09.062Z,24.12
2018-08-11T04:43:41.207Z,24.22
2018-08-11T04:44:13.379Z,24.18
2018-08-11T04:44:45.536Z,24.21
2018-08-11T04:45:17.570Z,24.15
2018-08-11T04:45:49.594Z,24.26
2018-08-11T04:46:21.657Z,24.11
2018-08-11T04:46:53.743Z,24.17
2018-08-11T04:47:26.697Z,24.14
2018-08-11T04:47:58.749Z,24.17
2018-08-11T04:48:30.799Z,24.17
2018-08-11T04:49:02.860Z,24.12
2018-08-11T04:49:34.919Z,24.27
2018-08-11T04:50:06.931Z,24.21
2018-08-11T04:50:38.997Z,24.18
2018-08-11T04:51:11.064Z,24.15
2018-08-11T04:51:43.133Z,24.11
2018-08-11T04:52:15.216Z,24.12
2018-08-11T04:52:47.843Z,24.14
2018-08-11T04:53:19.924Z,24.21
2018-08-11T04:53:51.957Z,24.17
2018-08-11T04:54:24.008Z,24.11
2018-08-11T04:54:56.068Z,24.17
2018-08-11T04:55:28.151Z,24.11
2018-08-11T04:56:00.251Z,24.15
2018-08-11T04:56:32.299Z,24.17
2018-08-11T04:57:04.379Z,24.24
2018-08-11T04:57:36.452Z,24.24
2018-08-11T04:58:08.547Z,24.14
2018-08-11T04:58:40.631Z,24.14
2018-08-11T04:59:12.678Z,24.19
2018-08-11T04:59:44.724Z,24.17
2018-08-11T05:00:16.754Z,24.21
2018-08-11T05:00:48.861Z,24.12
2018-08-11T05:01:20.982Z,24.18
2018-08-11T05:01:53.158Z,24.19
2018-08-11T05:02:25.208Z,24.21
2018-08-11T05:02:57.299Z,24.22
2018-08-11T05:03:29.363Z,24.19
2018-08-11T05:04:01.445Z,24.22
2018-08-11T05:04:33.484Z,24.18
2018-08-11T05:05:05.496Z,24.26
2018-08-11T05:05:37.586Z,24.26
2018-08-11T05:06:09.601Z,24.22
2018-08-11T05:06:41.645Z,24.24
2018-08-11T05:07:13.708Z,24.21
2018-08-11T05:07:45.793Z,24.26
2018-08-11T05:08:17.859Z,24.24
2018-08-11T05:08:49.923Z,24.29
2018-08-11T05:09:22.154Z,24.24
2018-08-11T05:09:54.219Z,24.24
2018-08-11T05:10:26.243Z,24.36
2018-08-11T05:10:58.316Z,24.24
2018-08-11T05:11:30.366Z,24.3
2018-08-11T05:12:02.485Z,24.34
2018-08-11T05:12:34.478Z,24.3
2018-08-11T05:13:06.532Z,24.24
2018-08-11T05:13:38.582Z,24.27
2018-08-11T05:14:10.645Z,24.32
2018-08-11T05:14:42.721Z,24.34
2018-08-11T05:15:14.843Z,24.33
2018-08-11T05:15:46.972Z,24.29
2018-08-11T05:16:19.013Z,24.27
2018-08-11T05:16:51.098Z,24.33
2018-08-11T05:17:23.149Z,24.33
2018-08-11T05:17:55.154Z,24.33
2018-08-11T05:18:27.181Z,24.33
2018-08-11T05:18:59.244Z,24.27
2018-08-11T05:19:31.282Z,24.3
2018-08-11T05:20:03.296Z,24.33
2018-08-11T05:20:35.362Z,24.29
2018-08-11T05:21:07.428Z,24.33
2018-08-11T05:21:39.485Z,24.36
2018-08-11T05:22:11.535Z,24.37
2018-08-11T05:22:43.577Z,24.32
2018-08-11T05:23:15.636Z,24.34
2018-08-11T05:23:47.732Z,24.42
2018-08-11T05:24:19.921Z,24.42
2018-08-11T05:24:52.051Z,24.39
2018-08-11T05:25:24.046Z,24.44
2018-08-11T05:25:56.060Z,24.42
2018-08-11T05:26:28.100Z,24.44
2018-08-11T05:27:00.192Z,24.54
2018-08-11T05:27:32.248Z,24.4
2018-08-11T05:28:04.321Z,24.46
2018-08-11T05:28:36.382Z,24.52
2018-08-11T05:29:08.464Z,24.46
2018-08-11T05:29:40.558Z,24.51
2018-08-11T05:30:12.607Z,24.51
2018-08-11T05:30:44.679Z,24.51
2018-08-11T05:31:16.796Z,24.46
2018-08-11T05:31:48.860Z,24.48
2018-08-11T05:32:20.898Z,24.52
2018-08-11T05:32:53.034Z,24.52
2018-08-11T05:33:25.217Z,24.49
2018-08-11T05:33:57.264Z,24.44
2018-08-11T05:34:29.311Z,24.46
2018-08-11T05:35:01.353Z,24.54
2018-08-11T05:35:33.412Z,24.46
2018-08-11T05:36:05.476Z,24.48
2018-08-11T05:36:37.545Z,24.46
2018-08-11T05:37:09.596Z,24.54
2018-08-11T05:37:41.663Z,24.45
2018-08-11T05:38:13.780Z,24.54
2018-08-11T05:38:45.828Z,24.46
2018-08-11T05:39:17.888Z,24.55
2018-08-11T05:39:49.923Z,24.45
2018-08-11T05:40:21.970Z,24.49
2018-08-11T05:40:54.000Z,24.51
2018-08-11T05:41:26.017Z,24.51
2018-08-11T05:41:58.101Z,24.56
2018-08-11T05:42:30.171Z,24.66
2018-08-11T05:43:02.247Z,24.61
2018-08-11T05:43:34.287Z,24.61
2018-08-11T05:44:06.354Z,24.66
2018-08-11T05:44:38.496Z,24.63
2018-08-11T05:45:10.577Z,24.67
2018-08-11T05:45:42.642Z,24.71
2018-08-11T05:46:14.768Z,24.69
2018-08-11T05:46:46.855Z,24.67
2018-08-11T05:47:18.878Z,24.66
2018-08-11T05:47:50.922Z,24.78
2018-08-11T05:48:22.924Z,24.77
2018-08-11T05:48:55.863Z,24.78
2018-08-11T05:49:27.913Z,24.77
2018-08-11T05:49:59.965Z,24.78
2018-08-11T05:50:32.111Z,24.75
2018-08-11T05:51:04.225Z,24.7
2018-08-11T05:51:36.258Z,24.87
2018-08-11T05:52:08.299Z,24.87
2018-08-11T05:52:40.352Z,24.86
2018-08-11T05:53:12.458Z,24.94
2018-08-11T05:53:44.491Z,24.94
2018-08-11T05:54:16.577Z,24.97
2018-08-11T05:54:48.652Z,24.96
2018-08-11T05:55:20.798Z,24.94
2018-08-11T05:55:52.824Z,24.87
2018-08-11T05:56:24.891Z,24.96
2018-08-11T05:56:56.955Z,25.01
2018-08-11T05:57:29.070Z,25
2018-08-11T05:58:01.049Z,25.02
2018-08-11T05:58:33.071Z,24.97
2018-08-11T05:59:05.221Z,25.07
2018-08-11T05:59:37.226Z,25
2018-08-11T06:00:09.257Z,24.96
2018-08-11T06:00:41.296Z,24.97
2018-08-11T06:01:13.339Z,25.02
2018-08-11T06:01:45.429Z,25.04
2018-08-11T06:02:17.470Z,25.04
2018-08-11T06:02:49.505Z,25.04
2018-08-11T06:03:21.578Z,24.96
2018-08-11T06:03:53.604Z,25
2018-08-11T06:04:25.657Z,25.05
2018-08-11T06:04:57.770Z,25
2018-08-11T06:05:29.856Z,25.02
2018-08-11T06:06:01.941Z,25.07
2018-08-11T06:06:34.000Z,24.97
2018-08-11T06:07:06.060Z,25
2018-08-11T06:07:38.075Z,25.05
2018-08-11T06:08:10.267Z,25.02
2018-08-11T06:08:42.319Z,25
2018-08-11T06:09:14.367Z,25.02
2018-08-11T06:09:46.382Z,24.97
2018-08-11T06:10:18.439Z,25.05
2018-08-11T06:10:50.494Z,25.05
2018-08-11T06:11:22.564Z,25.07
2018-08-11T06:11:54.614Z,25.08
2018-08-11T06:12:26.702Z,24.97
2018-08-11T06:12:58.734Z,25
2018-08-11T06:13:30.749Z,25.05
2018-08-11T06:14:02.772Z,25
2018-08-11T06:14:34.830Z,25.02
2018-08-11T06:15:06.898Z,24.96
2018-08-11T06:15:38.954Z,25.01
2018-08-11T06:16:11.006Z,25.14
2018-08-11T06:16:43.063Z,25.02
2018-08-11T06:17:15.074Z,25.05
2018-08-11T06:17:47.125Z,25.07
2018-08-11T06:18:19.189Z,25.02
2018-08-11T06:18:51.240Z,25.04
2018-08-11T06:19:23.202Z,25.02
2018-08-11T06:19:55.383Z,25.02
2018-08-11T06:20:27.533Z,25.09
2018-08-11T06:20:59.613Z,25.02
2018-08-11T06:21:31.648Z,25.01
2018-08-11T06:22:03.634Z,25.12
2018-08-11T06:22:35.697Z,25.07
2018-08-11T06:23:07.727Z,25.09
2018-08-11T06:23:39.802Z,25.11
2018-08-11T06:24:11.827Z,25.05
2018-08-11T06:24:43.891Z,25.09
2018-08-11T06:25:15.897Z,25.19
2018-08-11T06:25:47.961Z,25.17
2018-08-11T06:26:20.007Z,25.19
2018-08-11T06:26:52.061Z,25.19
2018-08-11T06:27:24.124Z,25.22
2018-08-11T06:27:56.215Z,25.17
2018-08-11T06:28:28.374Z,25.19
2018-08-11T06:29:00.400Z,25.27
2018-08-11T06:29:32.416Z,25.19
2018-08-11T06:30:04.469Z,25.24
2018-08-11T06:30:36.513Z,25.27
2018-08-11T06:31:08.531Z,25.27
2018-08-11T06:31:40.746Z,25.3
2018-08-11T06:32:12.932Z,25.34
2018-08-11T06:32:44.917Z,25.37
2018-08-11T06:33:16.994Z,25.41
2018-08-11T06:33:49.003Z,25.33
2018-08-11T06:34:21.074Z,25.44
2018-08-11T06:34:53.232Z,25.42
2018-08-11T06:35:25.259Z,25.44
2018-08-11T06:35:57.318Z,25.47
2018-08-11T06:36:29.379Z,25.49
2018-08-11T06:37:01.488Z,25.48
2018-08-11T06:37:33.626Z,25.51
2018-08-11T06:38:05.716Z,25.51
2018-08-11T06:38:37.716Z,25.52
2018-08-11T06:39:09.804Z,25.57
2018-08-11T06:39:41.877Z,25.56
2018-08-11T06:40:13.935Z,25.63
2018-08-11T06:40:46.151Z,25.57
2018-08-11T06:41:18.574Z,25.62
2018-08-11T06:41:50.650Z,25.71
2018-08-11T06:42:22.716Z,25.62
2018-08-11T06:42:54.753Z,25.7
2018-08-11T06:43:26.970Z,25.7
2018-08-11T06:43:59.035Z,25.75
2018-08-11T06:44:31.101Z,25.69
2018-08-11T06:45:03.118Z,25.79
2018-08-11T06:45:35.181Z,25.74
2018-08-11T06:46:07.248Z,25.75
2018-08-11T06:46:39.387Z,25.81
2018-08-11T06:47:11.552Z,25.88
2018-08-11T06:47:43.608Z,25.86
2018-08-11T06:48:15.693Z,25.86
2018-08-11T06:48:47.726Z,25.88
2018-08-11T06:49:19.753Z,25.86
2018-08-11T06:49:51.771Z,25.93
2018-08-11T06:50:23.850Z,26
2018-08-11T06:50:55.873Z,25.99
2018-08-11T06:51:27.875Z,25.97
2018-08-11T06:51:59.913Z,26.06
2018-08-11T06:52:31.952Z,26.01
2018-08-11T06:53:04.042Z,26.03
2018-08-11T06:53:36.152Z,26.09
2018-08-11T06:54:08.187Z,26.09
2018-08-11T06:54:40.226Z,26.09
2018-08-11T06:55:12.310Z,26.11